createdAt,value
2018-06-16T00:00:37.543Z,16.10
2018-06-16T00:03:05.715Z,16.00
2018-06-16T00:05:33.341Z,16.00
2018-06-16T00:08:00.933Z,16.00
2018-06-16T00:10:28.517Z,15.90
2018-06-16T00:12:56.087Z,15.90
2018-06-16T00:15:24.329Z,15.80
2018-06-16T00:17:51.909Z,15.80
2018-06-16T00:20:19.503Z,15.80
2018-06-16T00:22:47.055Z,15.80
2018-06-16T00:25:14.634Z,15.80
2018-06-16T00:27:42.201Z,15.70
2018-06-16T00:30:09.812Z,15.70
2018-06-16T00:32:37.408Z,15.70
2018-06-16T00:35:05.009Z,15.70
2018-06-16T00:37:32.568Z,15.60
2018-06-16T00:40:00.176Z,15.60
2018-06-16T00:42:27.746Z,15.60
2018-06-16T00:44:55.281Z,15.60
2018-06-16T00:47:22.850Z,15.50
2018-06-16T00:49:50.423Z,15.50
2018-06-16T00:52:18.033Z,15.50
2018-06-16T00:54:45.626Z,15.40
2018-06-16T00:57:24.440Z,15.40
2018-06-16T00:59:52.795Z,15.40
2018-06-16T01:02:20.405Z,15.30
2018-06-16T01:04:47.999Z,15.20
2018-06-16T01:07:15.698Z,15.20
2018-06-16T01:09:43.339Z,15.10
2018-06-16T01:12:10.907Z,15.10
2018-06-16T01:14:38.515Z,15.10
2018-06-16T01:17:06.133Z,15.10
2018-06-16T01:19:33.719Z,15.00
2018-06-16T01:22:01.322Z,15.00
2018-06-16T01:24:28.864Z,15.10
2018-06-16T01:26:56.446Z,15.10
2018-06-16T01:29:24.039Z,15.10
2018-06-16T01:31:51.614Z,15.00
2018-06-16T01:34:19.766Z,15.10
2018-06-16T01:36:48.012Z,15.10
2018-06-16T01:39:15.605Z,15.10
2018-06-16T01:41:43.180Z,15.00
2018-06-16T01:44:10.753Z,15.10
2018-06-16T01:46:39.312Z,15.00
2018-06-16T01:49:06.861Z,15.00
2018-06-16T01:51:35.495Z,15.00
2018-06-16T01:56:30.595Z,15.00
2018-06-16T01:58:59.128Z,15.00
2018-06-16T02:01:26.700Z,14.90
2018-06-16T02:03:54.253Z,15.00
2018-06-16T02:06:21.785Z,15.00
2018-06-16T02:08:49.402Z,14.90
2018-06-16T02:11:17.617Z,14.80
2018-06-16T02:16:12.668Z,14.70
2018-06-16T02:18:40.255Z,14.60
2018-06-16T02:21:07.788Z,14.60
2018-06-16T02:23:36.009Z,14.50
2018-06-16T02:26:04.250Z,14.50
2018-06-16T02:28:31.877Z,14.50
2018-06-16T02:30:59.459Z,14.50
2018-06-16T02:33:27.009Z,14.50
2018-06-16T02:35:55.083Z,14.50
2018-06-16T02:38:22.701Z,14.60
2018-06-16T02:40:50.274Z,14.60
2018-06-16T02:43:17.857Z,14.70
2018-06-16T02:45:45.458Z,14.70
2018-06-16T02:48:13.011Z,14.60
2018-06-16T02:50:40.617Z,14.60
2018-06-16T02:55:35.679Z,14.60
2018-06-16T02:58:03.313Z,14.50
2018-06-16T03:00:30.913Z,14.40
2018-06-16T03:02:58.491Z,14.40
2018-06-16T03:05:26.060Z,14.40
2018-06-16T03:07:53.637Z,14.40
2018-06-16T03:10:21.245Z,14.40
2018-06-16T03:12:48.791Z,14.40
2018-06-16T03:15:16.529Z,14.30
2018-06-16T03:17:44.057Z,14.20
2018-06-16T03:20:11.617Z,14.20
2018-06-16T03:22:39.213Z,14.20
2018-06-16T03:25:06.766Z,14.10
2018-06-16T03:27:34.372Z,14.10
2018-06-16T03:30:01.964Z,14.10
2018-06-16T03:32:29.530Z,14.00
2018-06-16T03:34:58.042Z,14.00
2018-06-16T03:37:25.610Z,14.00
2018-06-16T03:39:53.682Z,14.00
2018-06-16T03:42:21.256Z,14.00
2018-06-16T03:44:48.833Z,14.00
2018-06-16T03:47:16.457Z,14.10
2018-06-16T03:49:44.029Z,14.10
2018-06-16T03:52:11.657Z,14.10
2018-06-16T03:54:39.231Z,14.20
2018-06-16T03:57:06.796Z,14.20
2018-06-16T03:59:34.389Z,14.20
2018-06-16T04:02:02.019Z,14.30
2018-06-16T04:04:29.585Z,14.30
2018-06-16T04:06:57.132Z,14.40
2018-06-16T04:09:24.702Z,14.40
2018-06-16T04:11:52.225Z,14.40
2018-06-16T04:16:47.315Z,14.40
2018-06-16T04:19:14.893Z,14.40
2018-06-16T04:21:42.460Z,14.50
2018-06-16T04:26:38.408Z,14.50
2018-06-16T04:29:06.825Z,14.50
2018-06-16T04:31:34.952Z,14.60
2018-06-16T04:34:02.512Z,14.60
2018-06-16T04:36:30.142Z,14.70
2018-06-16T04:38:57.731Z,14.70
2018-06-16T04:41:25.292Z,14.80
2018-06-16T04:43:54.451Z,14.80
2018-06-16T04:46:22.045Z,14.80
2018-06-16T04:48:49.611Z,14.80
2018-06-16T04:51:17.275Z,14.90
2018-06-16T04:53:44.891Z,14.90
2018-06-16T04:56:12.486Z,15.00
2018-06-16T04:58:40.142Z,15.10
2018-06-16T05:01:07.722Z,15.20
2018-06-16T05:03:35.321Z,15.20
2018-06-16T05:06:02.957Z,15.30
2018-06-16T05:08:31.546Z,15.30
2018-06-16T05:10:59.151Z,15.40
2018-06-16T05:13:26.722Z,15.40
2018-06-16T05:15:54.330Z,15.50
2018-06-16T05:18:21.879Z,15.60
2018-06-16T05:20:49.455Z,15.60
2018-06-16T05:23:17.064Z,15.70
2018-06-16T05:25:44.739Z,15.80
2018-06-16T05:28:12.376Z,15.80
2018-06-16T05:30:40.057Z,15.90
2018-06-16T05:33:07.719Z,16.00
2018-06-16T05:35:35.288Z,16.10
2018-06-16T05:38:03.139Z,16.20
2018-06-16T05:40:30.752Z,16.30
2018-06-16T05:42:58.301Z,16.40
2018-06-16T05:45:25.928Z,16.50
2018-06-16T05:47:53.525Z,16.60
2018-06-16T05:50:21.137Z,16.70
2018-06-16T05:55:16.526Z,16.80
2018-06-16T05:57:44.731Z,17.00
2018-06-16T06:00:14.267Z,17.00
2018-06-16T06:02:41.815Z,17.10
2018-06-16T06:05:09.427Z,17.20
2018-06-16T06:07:37.639Z,17.30
2018-06-16T06:12:32.643Z,17.50
2018-06-16T06:15:00.226Z,17.60
2018-06-16T06:17:27.784Z,17.60
2018-06-16T06:19:55.308Z,17.70
2018-06-16T06:22:22.884Z,17.80
2018-06-16T06:24:50.481Z,17.90
2018-06-16T06:27:18.041Z,18.00
2018-06-16T06:29:45.591Z,18.10
2018-06-16T06:32:13.191Z,18.20
2018-06-16T06:34:40.805Z,18.30
2018-06-16T06:37:08.436Z,18.30
2018-06-16T06:39:35.970Z,18.40
2018-06-16T06:42:04.042Z,18.50
2018-06-16T06:44:31.723Z,18.60
2018-06-16T06:46:59.382Z,18.60
2018-06-16T06:49:26.958Z,18.70
2018-06-16T06:51:54.596Z,18.80
2018-06-16T06:54:22.141Z,18.90
2018-06-16T06:56:49.909Z,19.00
2018-06-16T06:59:17.565Z,19.00
2018-06-16T07:01:45.140Z,19.10
2018-06-16T07:04:12.712Z,19.20
2018-06-16T07:06:40.337Z,19.30
2018-06-16T07:09:09.564Z,19.30
2018-06-16T07:11:37.153Z,19.40
2018-06-16T07:14:04.722Z,19.40
2018-06-16T07:16:32.312Z,19.60
2018-06-16T07:18:59.937Z,19.60
2018-06-16T07:21:27.526Z,19.70
2018-06-16T07:23:56.867Z,19.80
2018-06-16T07:26:24.512Z,19.80
2018-06-16T07:28:52.168Z,19.90
2018-06-16T07:31:19.799Z,20.00
2018-06-16T07:33:47.368Z,20.00
2018-06-16T07:36:15.060Z,20.10
2018-06-16T07:38:42.666Z,20.20
2018-06-16T07:41:10.259Z,20.30
2018-06-16T07:43:37.846Z,20.40
2018-06-16T07:46:05.518Z,20.40
2018-06-16T07:48:33.069Z,20.50
2018-06-16T07:51:00.695Z,20.60
2018-06-16T07:53:28.714Z,20.70
2018-06-16T07:55:56.370Z,20.70
2018-06-16T07:58:23.919Z,20.80
2018-06-16T08:00:51.533Z,20.90
2018-06-16T08:03:19.128Z,21.00
2018-06-16T08:05:46.713Z,21.10
2018-06-16T08:08:14.254Z,21.20
2018-06-16T08:10:41.823Z,21.30
2018-06-16T08:13:09.591Z,21.40
2018-06-16T08:15:37.140Z,21.40
2018-06-16T08:18:04.940Z,21.50
2018-06-16T08:20:32.532Z,21.70
2018-06-16T08:23:00.133Z,21.80
2018-06-16T08:25:27.744Z,21.80
2018-06-16T08:27:55.383Z,21.90
2018-06-16T08:30:22.934Z,22.00
2018-06-16T08:32:50.581Z,22.00
2018-06-16T08:35:18.132Z,22.10
2018-06-16T08:37:45.698Z,22.20
2018-06-16T08:40:13.276Z,22.30
2018-06-16T08:42:40.915Z,22.30
2018-06-16T08:45:08.528Z,22.40
2018-06-16T08:47:36.127Z,22.40
2018-06-16T08:50:03.790Z,22.50
2018-06-16T08:52:31.389Z,22.70
2018-06-16T08:54:59.653Z,22.80
2018-06-16T08:57:27.180Z,22.80
2018-06-16T08:59:54.699Z,22.90
2018-06-16T09:02:22.272Z,22.90
2018-06-16T09:04:49.849Z,23.00
2018-06-16T09:07:17.407Z,23.10
2018-06-16T09:09:45.204Z,23.20
2018-06-16T09:12:12.816Z,23.30
2018-06-16T09:14:40.982Z,23.30
2018-06-16T09:17:08.630Z,23.30
2018-06-16T09:19:36.847Z,23.40
2018-06-16T09:22:04.674Z,23.50
2018-06-16T09:24:32.270Z,23.70
2018-06-16T09:27:00.524Z,23.90
2018-06-16T09:29:28.143Z,24.10
2018-06-16T09:31:55.724Z,24.40
2018-06-16T09:34:24.168Z,24.70
2018-06-16T09:36:51.761Z,24.80
2018-06-16T09:39:19.417Z,24.70
2018-06-16T09:41:47.715Z,24.70
2018-06-16T09:44:15.297Z,24.60
2018-06-16T09:46:42.867Z,24.70
2018-06-16T09:49:10.463Z,24.70
2018-06-16T09:51:38.113Z,24.80
2018-06-16T09:54:05.677Z,24.60
2018-06-16T09:56:33.271Z,24.60
2018-06-16T09:59:00.854Z,24.70
2018-06-16T10:01:28.457Z,24.70
2018-06-16T10:03:56.062Z,24.80
2018-06-16T10:06:23.687Z,24.90
2018-06-16T10:11:18.853Z,25.00
2018-06-16T10:13:46.416Z,25.20
2018-06-16T10:16:14.123Z,25.50
2018-06-16T10:18:41.702Z,25.60
2018-06-16T10:21:09.335Z,25.70
2018-06-16T10:23:36.958Z,25.90
2018-06-16T10:26:05.152Z,25.90
2018-06-16T10:28:32.741Z,26.00
2018-06-16T10:31:00.365Z,26.00
2018-06-16T10:33:28.068Z,26.00
2018-06-16T10:35:55.625Z,26.20
2018-06-16T10:38:23.198Z,26.50
2018-06-16T10:40:50.838Z,26.90
2018-06-16T10:43:18.433Z,27.30
2018-06-16T10:45:46.053Z,27.50
2018-06-16T10:50:41.135Z,27.70
2018-06-16T10:53:08.714Z,27.60
2018-06-16T10:55:36.253Z,27.80
2018-06-16T10:58:03.918Z,27.90
2018-06-16T11:00:31.504Z,28.10
2018-06-16T11:02:59.102Z,28.30
2018-06-16T11:05:26.696Z,28.10
2018-06-16T11:07:54.278Z,28.00
2018-06-16T11:10:21.903Z,28.30
2018-06-16T11:12:49.655Z,28.60
2018-06-16T11:15:17.273Z,28.80
2018-06-16T11:17:44.919Z,28.90
2018-06-16T11:20:12.530Z,29.10
2018-06-16T11:22:40.146Z,29.50
2018-06-16T11:25:07.763Z,29.70
2018-06-16T11:27:35.386Z,30.10
2018-06-16T11:30:03.191Z,30.30
2018-06-16T11:32:30.769Z,30.40
2018-06-16T11:34:58.418Z,30.70
2018-06-16T11:37:26.021Z,30.80
2018-06-16T11:39:53.619Z,31.40
2018-06-16T11:42:21.204Z,32.60
2018-06-16T11:44:48.888Z,34.50
2018-06-16T11:47:16.486Z,34.40
2018-06-16T11:49:44.069Z,33.50
2018-06-16T11:52:11.671Z,32.80
2018-06-16T11:54:39.214Z,33.30
2018-06-16T11:57:06.784Z,36.30
2018-06-16T11:59:35.091Z,40.30
2018-06-16T12:02:02.672Z,43.90
2018-06-16T12:04:30.240Z,45.40
2018-06-16T12:06:57.837Z,46.40
2018-06-16T12:09:25.467Z,47.70
2018-06-16T12:11:53.060Z,49.10
2018-06-16T12:14:20.756Z,50.50
2018-06-16T12:16:48.346Z,51.30
2018-06-16T12:19:15.944Z,52.20
2018-06-16T12:21:43.526Z,53.00
2018-06-16T12:24:11.163Z,53.70
2018-06-16T12:26:38.739Z,53.50
2018-06-16T12:29:06.350Z,52.00
2018-06-16T12:31:33.918Z,51.90
2018-06-16T12:34:01.519Z,52.30
2018-06-16T12:36:29.121Z,51.10
2018-06-16T12:38:56.787Z,49.70
2018-06-16T12:41:24.349Z,47.30
2018-06-16T12:43:51.942Z,45.00
2018-06-16T12:46:19.600Z,45.40
2018-06-16T12:48:47.210Z,46.90
2018-06-16T12:51:15.855Z,48.30
2018-06-16T12:53:43.584Z,50.50
2018-06-16T12:56:11.193Z,51.90
2018-06-16T12:58:39.352Z,52.90
2018-06-16T13:01:07.012Z,53.90
2018-06-16T13:03:34.584Z,54.60
2018-06-16T13:06:02.191Z,54.60
2018-06-16T13:08:29.780Z,54.00
2018-06-16T13:10:57.393Z,52.70
2018-06-16T13:13:25.079Z,51.30
2018-06-16T13:15:52.674Z,51.10
2018-06-16T13:18:20.272Z,51.50
2018-06-16T13:20:49.511Z,52.00
2018-06-16T13:23:17.054Z,52.50
2018-06-16T13:25:44.672Z,52.70
2018-06-16T13:28:12.248Z,51.40
2018-06-16T13:30:39.902Z,49.50
2018-06-16T13:33:07.568Z,48.40
2018-06-16T13:35:35.270Z,48.90
2018-06-16T13:38:02.841Z,49.50
2018-06-16T13:40:30.429Z,48.90
2018-06-16T13:42:58.684Z,46.00
2018-06-16T13:45:26.275Z,43.80
2018-06-16T13:47:53.899Z,44.50
2018-06-16T13:50:21.472Z,46.20
2018-06-16T13:52:49.057Z,47.30
2018-06-16T13:55:16.694Z,47.70
2018-06-16T13:57:44.266Z,47.30
2018-06-16T14:00:11.927Z,46.40
2018-06-16T14:02:39.541Z,44.80
2018-06-16T14:05:07.108Z,42.80
2018-06-16T14:07:34.684Z,40.90
2018-06-16T14:10:02.327Z,39.90
2018-06-16T14:12:29.980Z,39.40
2018-06-16T14:14:57.623Z,39.10
2018-06-16T14:17:25.775Z,38.90
2018-06-16T14:19:53.376Z,39.30
2018-06-16T14:22:20.982Z,40.10
2018-06-16T14:24:48.585Z,41.10
2018-06-16T14:27:16.158Z,42.00
2018-06-16T14:29:43.768Z,41.40
2018-06-16T14:32:11.388Z,40.70
2018-06-16T14:34:38.976Z,39.90
2018-06-16T14:37:06.539Z,38.60
2018-06-16T14:39:34.166Z,37.40
2018-06-16T14:42:01.754Z,36.40
2018-06-16T14:44:29.365Z,35.40
2018-06-16T14:46:57.531Z,34.50
2018-06-16T14:49:25.121Z,33.80
2018-06-16T14:51:52.746Z,33.20
2018-06-16T14:54:20.322Z,32.80
2018-06-16T14:56:47.962Z,32.30
2018-06-16T15:01:49.828Z,31.60
2018-06-16T15:04:17.471Z,31.70
2018-06-16T15:06:45.090Z,31.90
2018-06-16T15:09:12.689Z,31.70
2018-06-16T15:11:40.314Z,31.30
2018-06-16T15:14:08.104Z,30.90
2018-06-16T15:16:35.704Z,30.60
2018-06-16T15:19:03.358Z,30.30
2018-06-16T15:21:30.924Z,30.40
2018-06-16T15:26:26.055Z,30.30
2018-06-16T15:28:53.653Z,30.10
2018-06-16T15:31:21.276Z,30.00
2018-06-16T15:33:49.696Z,29.90
2018-06-16T15:36:17.348Z,29.70
2018-06-16T15:38:45.139Z,29.70
2018-06-16T15:41:12.850Z,29.70
2018-06-16T15:43:40.439Z,29.80
2018-06-16T15:46:08.026Z,29.90
2018-06-16T15:48:35.684Z,29.80
2018-06-16T15:51:03.279Z,29.80
2018-06-16T15:53:30.880Z,29.80
2018-06-16T15:55:58.498Z,29.80
2018-06-16T15:58:26.107Z,29.90
2018-06-16T16:00:53.708Z,30.00
2018-06-16T16:05:48.852Z,29.80
2018-06-16T16:08:16.449Z,29.80
2018-06-16T16:10:44.033Z,29.80
2018-06-16T16:13:11.616Z,29.80
2018-06-16T16:15:39.188Z,29.70
2018-06-16T16:18:06.784Z,29.60
2018-06-16T16:20:34.399Z,29.50
2018-06-16T16:23:01.990Z,29.50
2018-06-16T16:25:29.638Z,29.40
2018-06-16T16:27:57.170Z,29.30
2018-06-16T16:30:24.765Z,29.30
2018-06-16T16:32:52.410Z,29.30
2018-06-16T16:35:20.048Z,29.40
2018-06-16T16:37:47.769Z,29.50
2018-06-16T16:40:15.408Z,29.40
2018-06-16T16:42:42.994Z,29.40
2018-06-16T16:45:10.597Z,29.30
2018-06-16T16:47:38.280Z,29.20
2018-06-16T16:50:05.954Z,29.10
2018-06-16T16:52:33.508Z,29.20
2018-06-16T16:55:01.148Z,29.20
2018-06-16T16:57:28.703Z,29.20
2018-06-16T16:59:56.284Z,29.20
2018-06-16T17:02:23.906Z,29.20
2018-06-16T17:04:51.547Z,29.20
2018-06-16T17:07:19.140Z,29.30
2018-06-16T17:09:46.716Z,29.30
2018-06-16T17:12:14.290Z,29.40
2018-06-16T17:14:41.886Z,29.30
2018-06-16T17:17:09.469Z,29.20
2018-06-16T17:19:37.129Z,29.10
2018-06-16T17:22:04.822Z,29.10
2018-06-16T17:24:33.357Z,28.80
2018-06-16T17:27:00.952Z,28.70
2018-06-16T17:29:28.525Z,28.40
2018-06-16T17:34:24.404Z,28.00
2018-06-16T17:36:52.009Z,27.80
2018-06-16T17:39:19.607Z,27.70
2018-06-16T17:41:47.177Z,27.50
2018-06-16T17:44:14.811Z,27.40
2018-06-16T17:46:42.433Z,27.30
2018-06-16T17:49:10.053Z,27.30
2018-06-16T17:51:37.676Z,27.20
2018-06-16T17:54:05.412Z,27.20
2018-06-16T17:56:32.998Z,27.20
2018-06-16T17:59:00.574Z,27.30
2018-06-16T18:01:28.155Z,27.30
2018-06-16T18:03:55.781Z,27.30
2018-06-16T18:06:23.415Z,27.30
2018-06-16T18:08:51.124Z,27.30
2018-06-16T18:11:18.949Z,27.20
2018-06-16T18:13:46.520Z,27.20
2018-06-16T18:16:14.116Z,27.20
2018-06-16T18:18:41.741Z,27.00
2018-06-16T18:21:09.378Z,27.00
2018-06-16T18:23:37.039Z,26.90
2018-06-16T18:26:04.803Z,26.80
2018-06-16T18:28:32.459Z,26.70
2018-06-16T18:31:00.130Z,26.60
2018-06-16T18:33:27.729Z,26.50
2018-06-16T18:35:55.376Z,26.40
2018-06-16T18:38:22.952Z,26.30
2018-06-16T18:40:50.530Z,26.10
2018-06-16T18:43:18.156Z,26.00
2018-06-16T18:45:45.791Z,25.90
2018-06-16T18:48:13.464Z,25.80
2018-06-16T18:50:41.069Z,25.70
2018-06-16T18:53:08.676Z,25.50
2018-06-16T18:55:36.302Z,25.50
2018-06-16T18:58:03.915Z,25.30
2018-06-16T19:00:31.497Z,25.20
2018-06-16T19:02:59.122Z,25.10
2018-06-16T19:05:26.756Z,24.90
2018-06-16T19:07:54.357Z,24.70
2018-06-16T19:10:22.025Z,24.60
2018-06-16T19:12:49.665Z,24.50
2018-06-16T19:15:17.269Z,24.30
2018-06-16T19:17:45.601Z,24.10
2018-06-16T19:20:13.201Z,24.00
2018-06-16T19:22:40.778Z,23.80
2018-06-16T19:25:08.419Z,23.70
2018-06-16T19:27:36.014Z,23.60
2018-06-16T19:30:03.765Z,23.40
2018-06-16T19:34:58.969Z,23.20
2018-06-16T19:37:26.572Z,23.10
2018-06-16T19:39:54.207Z,23.00
2018-06-16T19:44:49.358Z,22.80
2018-06-16T19:47:17.002Z,22.70
2018-06-16T19:49:44.621Z,22.60
2018-06-16T19:52:12.226Z,22.50
2018-06-16T19:54:39.855Z,22.40
2018-06-16T19:57:08.294Z,22.30
2018-06-16T19:59:35.886Z,22.30
2018-06-16T20:02:03.553Z,22.20
2018-06-16T20:04:31.168Z,22.10
2018-06-16T20:06:58.750Z,22.00
2018-06-16T20:09:26.363Z,21.90
2018-06-16T20:11:54.048Z,21.90
2018-06-16T20:14:21.550Z,21.70
2018-06-16T20:16:49.202Z,21.60
2018-06-16T20:19:16.854Z,21.60
2018-06-16T20:21:44.477Z,21.50
2018-06-16T20:24:12.015Z,21.40
2018-06-16T20:26:39.677Z,21.40
2018-06-16T20:29:07.275Z,21.40
2018-06-16T20:31:34.922Z,21.30
2018-06-16T20:34:02.572Z,21.30
2018-06-16T20:36:30.202Z,21.30
2018-06-16T20:38:57.792Z,21.30
2018-06-16T20:41:25.377Z,21.20
2018-06-16T20:43:52.992Z,21.20
2018-06-16T20:46:20.591Z,21.10
2018-06-16T20:48:48.272Z,21.00
2018-06-16T20:51:15.898Z,20.90
2018-06-16T20:53:43.569Z,20.90
2018-06-16T20:56:11.192Z,20.90
2018-06-16T20:58:38.734Z,20.90
2018-06-16T21:01:06.342Z,20.90
2018-06-16T21:03:33.936Z,20.80
2018-06-16T21:06:02.505Z,20.80
2018-06-16T21:08:30.338Z,20.70
2018-06-16T21:10:57.998Z,20.60
2018-06-16T21:13:25.666Z,20.60
2018-06-16T21:15:54.071Z,20.60
2018-06-16T21:18:21.720Z,20.60
2018-06-16T21:20:50.077Z,20.50
2018-06-16T21:23:17.679Z,20.40
2018-06-16T21:25:45.336Z,20.40
2018-06-16T21:28:12.968Z,20.40
2018-06-16T21:30:40.520Z,20.40
2018-06-16T21:33:08.784Z,20.30
2018-06-16T21:35:36.440Z,20.30
2018-06-16T21:38:05.058Z,20.30
2018-06-16T21:40:32.818Z,20.20
2018-06-16T21:43:00.500Z,20.20
2018-06-16T21:45:28.122Z,20.10
2018-06-16T21:47:55.785Z,20.20
2018-06-16T21:50:24.367Z,20.30
2018-06-16T21:52:52.009Z,20.30
2018-06-16T21:55:19.733Z,20.40
2018-06-16T21:57:47.315Z,20.40
2018-06-16T22:00:14.922Z,20.50
2018-06-16T22:02:42.853Z,20.40
2018-06-16T22:05:10.395Z,20.40
2018-06-16T22:07:38.003Z,20.30
2018-06-16T22:10:06.708Z,20.20
2018-06-16T22:12:34.284Z,20.20
2018-06-16T22:15:02.531Z,20.10
2018-06-16T22:17:30.122Z,20.00
2018-06-16T22:19:57.683Z,20.00
2018-06-16T22:22:25.338Z,19.90
2018-06-16T22:24:53.921Z,19.90
2018-06-16T22:27:21.512Z,19.80
2018-06-16T22:29:49.100Z,19.80
2018-06-16T22:32:16.704Z,19.80
2018-06-16T22:34:44.373Z,19.90
2018-06-16T22:37:12.593Z,19.90
2018-06-16T22:39:40.268Z,20.00
2018-06-16T22:42:07.856Z,20.10
2018-06-16T22:44:35.440Z,20.10
2018-06-16T22:47:03.152Z,20.20
2018-06-16T22:49:30.721Z,20.20
2018-06-16T22:51:58.356Z,20.10
2018-06-16T22:54:25.967Z,20.10
2018-06-16T22:56:53.524Z,20.10
2018-06-16T22:59:21.132Z,20.10
2018-06-16T23:01:48.828Z,20.00
2018-06-16T23:04:16.428Z,20.00
2018-06-16T23:06:44.014Z,20.00
2018-06-16T23:09:12.254Z,19.90
2018-06-16T23:11:39.824Z,19.90
2018-06-16T23:14:07.691Z,19.90
2018-06-16T23:16:35.400Z,20.00
2018-06-16T23:19:03.076Z,19.90
2018-06-16T23:21:30.782Z,20.00
2018-06-16T23:23:59.147Z,20.00
2018-06-16T23:26:26.809Z,19.90
2018-06-16T23:28:54.455Z,19.80
2018-06-16T23:31:22.090Z,19.80
2018-06-16T23:33:50.232Z,19.70
2018-06-16T23:36:18.542Z,19.70
2018-06-16T23:38:46.132Z,19.60
2018-06-16T23:41:13.742Z,19.50
2018-06-16T23:43:41.315Z,19.40
2018-06-16T23:46:08.971Z,19.30
2018-06-16T23:48:36.571Z,19.30
2018-06-16T23:51:04.143Z,19.30
2018-06-16T23:53:31.776Z,19.30
2018-06-16T23:55:59.347Z,19.20
2018-06-16T23:58:26.975Z,19.20
